Terminal Aerodrome Forecast
Issued by NWS

Current Version | Previous Version | Graphics & Text | Print | Product List | Glossary On
Versions: 1 2 3 4 5 6 7 8 9 10 11 12 13 14 15 16 17 18 19 20 21 22 23
000
FTUS41 KPBZ 021122
TAFMGW
TAF
KMGW 021122Z 0212/0312 21007KT P6SM SCT090
     FM021500 24012KT P6SM SCT035
     FM022300 VRB03KT P6SM OVC040
     FM030900 VRB03KT P6SM VCSH OVC020=

USA.gov is the U.S. government's official web portal to all federal, state and local government web resources and services.